createdAt,value
2023-04-19T00:00:17.436Z,375.00
2023-04-19T00:01:17.442Z,376.00
2023-04-19T00:02:17.650Z,375.00
2023-04-19T00:03:17.796Z,375.00
2023-04-19T00:04:17.880Z,376.00
2023-04-19T00:05:17.537Z,377.00
2023-04-19T00:06:17.480Z,377.00
2023-04-19T00:07:17.480Z,378.00
2023-04-19T00:08:17.477Z,378.00
2023-04-19T00:09:17.496Z,376.00
2023-04-19T00:10:17.491Z,378.00
2023-04-19T00:11:17.518Z,375.00
2023-04-19T00:12:17.529Z,373.00
2023-04-19T00:13:17.551Z,374.00
2023-04-19T00:14:17.651Z,375.00
2023-04-19T00:15:17.564Z,377.00
2023-04-19T00:16:17.576Z,379.00
2023-04-19T00:17:17.598Z,377.00
2023-04-19T00:18:17.605Z,378.00
2023-04-19T00:19:17.619Z,377.00
2023-04-19T00:20:17.642Z,378.00
2023-04-19T00:21:17.649Z,377.00
2023-04-19T00:22:17.666Z,377.00
2023-04-19T00:23:17.657Z,378.00
2023-04-19T00:24:17.687Z,376.00
2023-04-19T00:25:17.684Z,376.00
2023-04-19T00:26:17.688Z,376.00
2023-04-19T00:27:17.715Z,375.00
2023-04-19T00:28:17.723Z,374.00
2023-04-19T00:29:17.771Z,376.00
2023-04-19T00:30:17.731Z,374.00
2023-04-19T00:31:17.831Z,371.00
2023-04-19T00:32:17.775Z,373.00
2023-04-19T00:33:17.762Z,373.00
2023-04-19T00:34:17.786Z,375.00
2023-04-19T00:35:17.782Z,374.00
2023-04-19T00:36:17.804Z,376.00
2023-04-19T00:37:17.800Z,380.00
2023-04-19T00:38:17.839Z,381.00
2023-04-19T00:39:17.808Z,381.00
2023-04-19T00:40:17.814Z,378.00
2023-04-19T00:41:17.825Z,377.00
2023-04-19T00:42:17.845Z,372.00
2023-04-19T00:43:17.843Z,371.00
2023-04-19T00:44:17.859Z,370.00
2023-04-19T00:45:17.841Z,370.00
2023-04-19T00:46:17.923Z,370.00
2023-04-19T00:47:17.874Z,369.00
2023-04-19T00:48:17.883Z,369.00
2023-04-19T00:49:17.895Z,370.00
2023-04-19T00:50:17.924Z,371.00
2023-04-19T00:51:17.952Z,373.00
2023-04-19T00:52:17.929Z,373.00
2023-04-19T00:53:17.938Z,373.00
2023-04-19T00:54:17.964Z,374.00
2023-04-19T00:55:17.972Z,377.00
2023-04-19T00:56:17.982Z,376.00
2023-04-19T00:57:17.984Z,378.00
2023-04-19T00:58:17.980Z,375.00
2023-04-19T00:59:17.984Z,371.00
2023-04-19T01:00:17.982Z,370.00
2023-04-19T01:01:18.026Z,373.00
2023-04-19T01:02:18.021Z,374.00
2023-04-19T01:03:18.104Z,373.00
2023-04-19T01:04:18.267Z,373.00
2023-04-19T01:05:18.012Z,370.00
2023-04-19T01:06:18.017Z,372.00
2023-04-19T01:07:18.059Z,374.00
2023-04-19T01:08:18.029Z,377.00
2023-04-19T01:09:18.062Z,378.00
2023-04-19T01:10:18.058Z,377.00
2023-04-19T01:11:18.061Z,378.00
2023-04-19T01:12:18.061Z,377.00
2023-04-19T01:13:18.068Z,380.00
2023-04-19T01:14:18.131Z,378.00
2023-04-19T01:15:18.113Z,379.00
2023-04-19T01:16:18.166Z,379.00
2023-04-19T01:17:18.116Z,378.00
2023-04-19T01:18:18.098Z,376.00
2023-04-19T01:19:18.103Z,375.00
2023-04-19T01:20:18.108Z,376.00
2023-04-19T01:21:18.115Z,376.00
2023-04-19T01:22:18.130Z,376.00
2023-04-19T01:23:18.125Z,376.00
2023-04-19T01:24:18.135Z,372.00
2023-04-19T01:25:18.141Z,369.00
2023-04-19T01:26:18.146Z,372.00
2023-04-19T01:27:18.151Z,371.00
2023-04-19T01:28:18.196Z,370.00
2023-04-19T01:29:18.198Z,369.00
2023-04-19T01:30:18.202Z,367.00
2023-04-19T01:31:18.282Z,370.00
2023-04-19T01:32:18.234Z,369.00
2023-04-19T01:33:18.232Z,369.00
2023-04-19T01:34:18.252Z,371.00
2023-04-19T01:35:18.275Z,374.00
2023-04-19T01:36:18.266Z,374.00
2023-04-19T01:37:18.269Z,372.00
2023-04-19T01:38:18.279Z,370.00
2023-04-19T01:39:18.321Z,371.00
2023-04-19T01:40:18.308Z,370.00
2023-04-19T01:41:18.318Z,366.00
2023-04-19T01:42:18.349Z,368.00
2023-04-19T01:43:18.337Z,368.00
2023-04-19T01:44:18.361Z,367.00
2023-04-19T01:45:18.337Z,366.00
2023-04-19T01:46:18.442Z,367.00
2023-04-19T01:47:18.389Z,368.00
2023-04-19T01:48:18.377Z,368.00
2023-04-19T01:49:18.379Z,368.00
2023-04-19T01:50:18.391Z,370.00
2023-04-19T01:51:18.401Z,371.00
2023-04-19T01:52:18.432Z,370.00
2023-04-19T01:53:18.436Z,371.00
2023-04-19T01:54:18.451Z,368.00
2023-04-19T01:55:18.450Z,360.00
2023-04-19T01:56:18.472Z,361.00
2023-04-19T01:57:18.475Z,363.00
2023-04-19T01:58:18.483Z,367.00
2023-04-19T01:59:18.523Z,365.00
2023-04-19T02:00:18.531Z,366.00
2023-04-19T02:01:18.584Z,364.00
2023-04-19T02:02:18.722Z,364.00
2023-04-19T02:03:18.769Z,365.00
2023-04-19T02:04:18.706Z,368.00
2023-04-19T02:05:18.596Z,369.00
2023-04-19T02:06:18.590Z,369.00
2023-04-19T02:07:18.601Z,370.00
2023-04-19T02:08:18.631Z,371.00
2023-04-19T02:09:18.653Z,372.00
2023-04-19T02:10:18.648Z,368.00
2023-04-19T02:11:18.651Z,370.00
2023-04-19T02:12:18.677Z,372.00
2023-04-19T02:13:18.684Z,372.00
2023-04-19T02:14:18.692Z,375.00
2023-04-19T02:15:18.707Z,375.00
2023-04-19T02:16:18.752Z,375.00
2023-04-19T02:17:18.753Z,373.00
2023-04-19T02:18:18.750Z,372.00
2023-04-19T02:19:18.777Z,372.00
2023-04-19T02:20:18.792Z,370.00
2023-04-19T02:21:18.800Z,371.00
2023-04-19T02:22:18.833Z,371.00
2023-04-19T02:23:18.830Z,368.00
2023-04-19T02:24:18.857Z,365.00
2023-04-19T02:25:18.851Z,367.00
2023-04-19T02:26:18.863Z,364.00
2023-04-19T02:27:18.972Z,365.00
2023-04-19T02:28:18.908Z,366.00
2023-04-19T02:29:18.907Z,365.00
2023-04-19T02:30:18.952Z,363.00
2023-04-19T02:31:19.032Z,361.00
2023-04-19T02:32:18.943Z,361.00
2023-04-19T02:33:18.946Z,360.00
2023-04-19T02:34:18.966Z,360.00
2023-04-19T02:35:18.985Z,362.00
2023-04-19T02:36:19.011Z,365.00
2023-04-19T02:37:19.034Z,366.00
2023-04-19T02:38:19.046Z,366.00
2023-04-19T02:39:19.034Z,365.00
2023-04-19T02:40:19.041Z,366.00
2023-04-19T02:41:19.045Z,362.00
2023-04-19T02:42:19.078Z,363.00
2023-04-19T02:43:19.087Z,366.00
2023-04-19T02:44:19.096Z,367.00
2023-04-19T02:45:19.134Z,368.00
2023-04-19T02:46:19.203Z,370.00
2023-04-19T02:47:19.176Z,370.00
2023-04-19T02:48:19.161Z,369.00
2023-04-19T02:49:19.205Z,365.00
2023-04-19T02:50:19.220Z,366.00
2023-04-19T02:51:19.216Z,366.00
2023-04-19T02:52:19.237Z,368.00
2023-04-19T02:53:19.261Z,369.00
2023-04-19T02:54:19.270Z,368.00
2023-04-19T02:55:19.288Z,366.00
2023-04-19T02:56:19.297Z,369.00
2023-04-19T02:57:19.319Z,366.00
2023-04-19T02:58:19.317Z,366.00
2023-04-19T02:59:19.377Z,366.00
2023-04-19T03:00:19.381Z,371.00
2023-04-19T03:01:19.464Z,370.00
2023-04-19T03:02:19.434Z,371.00
2023-04-19T03:03:19.538Z,371.00
2023-04-19T03:04:19.561Z,373.00
2023-04-19T03:05:19.460Z,374.00
2023-04-19T03:06:19.469Z,374.00
2023-04-19T03:07:19.500Z,373.00
2023-04-19T03:08:19.516Z,374.00
2023-04-19T03:09:19.547Z,372.00
2023-04-19T03:10:19.549Z,373.00
2023-04-19T03:11:19.569Z,372.00
2023-04-19T03:12:19.584Z,370.00
2023-04-19T03:13:19.621Z,366.00
2023-04-19T03:14:19.636Z,363.00
2023-04-19T03:15:19.620Z,359.00
2023-04-19T03:16:19.686Z,359.00
2023-04-19T03:17:19.683Z,360.00
2023-04-19T03:18:19.665Z,363.00
2023-04-19T03:19:19.689Z,366.00
2023-04-19T03:20:19.696Z,365.00
2023-04-19T03:21:19.695Z,366.00
2023-04-19T03:22:19.724Z,364.00
2023-04-19T03:23:19.751Z,364.00
2023-04-19T03:24:19.773Z,365.00
2023-04-19T03:25:19.804Z,365.00
2023-04-19T03:26:19.788Z,368.00
2023-04-19T03:27:19.820Z,367.00
2023-04-19T03:28:19.810Z,369.00
2023-04-19T03:29:19.839Z,368.00
2023-04-19T03:30:19.873Z,366.00
2023-04-19T03:31:19.881Z,366.00
2023-04-19T03:32:19.870Z,367.00
2023-04-19T03:33:19.893Z,366.00
2023-04-19T03:34:19.915Z,366.00
2023-04-19T03:35:19.914Z,365.00
2023-04-19T03:36:19.933Z,364.00
2023-04-19T03:37:19.946Z,367.00
2023-04-19T03:38:19.972Z,367.00
2023-04-19T03:39:20.001Z,367.00
2023-04-19T03:40:20.018Z,367.00
2023-04-19T03:41:20.026Z,368.00
2023-04-19T03:42:20.048Z,366.00
2023-04-19T03:43:20.069Z,364.00
2023-04-19T03:44:20.083Z,364.00
2023-04-19T03:45:20.098Z,364.00
2023-04-19T03:46:20.173Z,363.00
2023-04-19T03:47:20.173Z,358.00
2023-04-19T03:48:20.152Z,360.00
2023-04-19T03:49:20.183Z,360.00
2023-04-19T03:50:20.194Z,363.00
2023-04-19T03:51:20.223Z,363.00
2023-04-19T03:52:20.228Z,364.00
2023-04-19T03:53:20.249Z,364.00
2023-04-19T03:54:20.264Z,364.00
2023-04-19T03:55:20.282Z,365.00
2023-04-19T03:56:20.288Z,364.00
2023-04-19T03:57:20.304Z,364.00
2023-04-19T03:58:20.339Z,365.00
2023-04-19T03:59:20.377Z,366.00
2023-04-19T04:00:20.398Z,367.00
2023-04-19T04:01:20.408Z,366.00
2023-04-19T04:02:20.540Z,366.00
2023-04-19T04:03:20.644Z,364.00
2023-04-19T04:04:20.795Z,366.00
2023-04-19T04:05:20.626Z,368.00
2023-04-19T04:06:20.476Z,369.00
2023-04-19T04:07:20.507Z,372.00
2023-04-19T04:08:20.511Z,374.00
2023-04-19T04:09:20.543Z,373.00
2023-04-19T04:10:20.538Z,372.00
2023-04-19T04:11:20.552Z,371.00
2023-04-19T04:12:20.553Z,372.00
2023-04-19T04:13:20.564Z,373.00
2023-04-19T04:14:20.588Z,375.00
2023-04-19T04:15:20.588Z,375.00
2023-04-19T04:16:20.599Z,375.00
2023-04-19T04:17:20.639Z,374.00
2023-04-19T04:18:20.651Z,374.00
2023-04-19T04:19:20.668Z,373.00
2023-04-19T04:20:20.695Z,374.00
2023-04-19T04:21:20.703Z,373.00
2023-04-19T04:22:20.699Z,373.00
2023-04-19T04:23:20.726Z,372.00
2023-04-19T04:24:20.738Z,374.00
2023-04-19T04:25:22.382Z,374.00
2023-04-19T04:26:20.775Z,372.00
2023-04-19T04:27:20.802Z,372.00
2023-04-19T04:28:20.830Z,371.00
2023-04-19T04:29:20.900Z,371.00
2023-04-19T04:30:20.898Z,370.00
2023-04-19T04:31:20.898Z,369.00
2023-04-19T04:32:20.942Z,371.00
2023-04-19T04:33:20.933Z,371.00
2023-04-19T04:34:20.973Z,371.00
2023-04-19T04:35:21.013Z,371.00
2023-04-19T04:36:21.033Z,370.00
2023-04-19T04:37:21.035Z,369.00
2023-04-19T04:38:24.767Z,369.00
2023-04-19T04:39:21.412Z,368.00
2023-04-19T04:40:21.068Z,368.00
2023-04-19T04:41:22.544Z,367.00
2023-04-19T04:42:21.105Z,367.00
2023-04-19T04:43:21.103Z,370.00
2023-04-19T04:44:21.131Z,368.00
2023-04-19T04:45:21.150Z,369.00
2023-04-19T04:46:21.184Z,371.00
2023-04-19T04:47:21.216Z,373.00
2023-04-19T04:48:21.196Z,373.00
2023-04-19T04:49:21.221Z,373.00
2023-04-19T04:50:21.248Z,372.00
2023-04-19T04:51:21.250Z,370.00
2023-04-19T04:52:21.264Z,366.00
2023-04-19T04:53:21.275Z,365.00
2023-04-19T04:54:21.303Z,365.00
2023-04-19T04:55:21.305Z,365.00
2023-04-19T04:56:21.338Z,363.00
2023-04-19T04:57:21.361Z,363.00
2023-04-19T04:58:21.354Z,364.00
2023-04-19T04:59:21.373Z,364.00
2023-04-19T05:00:21.416Z,365.00
2023-04-19T05:01:21.469Z,363.00
2023-04-19T05:02:21.479Z,366.00
2023-04-19T05:03:21.468Z,368.00
2023-04-19T05:04:21.508Z,370.00
2023-04-19T05:05:21.436Z,368.00
2023-04-19T05:06:21.454Z,367.00
2023-04-19T05:07:21.471Z,367.00
2023-04-19T05:08:21.469Z,365.00
2023-04-19T05:09:21.491Z,365.00
2023-04-19T05:10:21.481Z,365.00
2023-04-19T05:11:21.496Z,364.00
2023-04-19T05:12:21.542Z,364.00
2023-04-19T05:13:21.530Z,363.00
2023-04-19T05:14:21.546Z,363.00
2023-04-19T05:15:21.559Z,364.00
2023-04-19T05:16:21.619Z,363.00
2023-04-19T05:17:21.621Z,362.00
2023-04-19T05:18:21.592Z,360.00
2023-04-19T05:19:21.623Z,360.00
2023-04-19T05:20:21.624Z,359.00
2023-04-19T05:21:21.644Z,358.00
2023-04-19T05:22:21.688Z,358.00
2023-04-19T05:23:21.697Z,358.00
2023-04-19T05:24:21.763Z,360.00
2023-04-19T05:25:21.729Z,362.00
2023-04-19T05:26:21.742Z,363.00
2023-04-19T05:27:21.760Z,363.00
2023-04-19T05:28:21.817Z,363.00
2023-04-19T05:29:21.772Z,359.00
2023-04-19T05:30:21.845Z,357.00
2023-04-19T05:31:21.872Z,354.00
2023-04-19T05:32:21.849Z,354.00
2023-04-19T05:33:21.856Z,353.00
2023-04-19T05:34:22.473Z,353.00
2023-04-19T05:35:21.948Z,353.00
2023-04-19T05:36:21.911Z,356.00
2023-04-19T05:37:21.923Z,357.00
2023-04-19T05:38:21.952Z,360.00
2023-04-19T05:39:22.001Z,361.00
2023-04-19T05:40:22.017Z,359.00
2023-04-19T05:41:22.001Z,360.00
2023-04-19T05:42:22.021Z,359.00
2023-04-19T05:43:22.033Z,359.00
2023-04-19T05:44:22.038Z,359.00
2023-04-19T05:45:22.061Z,359.00
2023-04-19T05:46:22.103Z,359.00
2023-04-19T05:47:22.121Z,362.00
2023-04-19T05:48:22.120Z,361.00
2023-04-19T05:49:22.123Z,361.00
2023-04-19T05:50:22.165Z,358.00
2023-04-19T05:51:22.158Z,359.00
2023-04-19T05:52:22.271Z,363.00
2023-04-19T05:53:22.208Z,362.00
2023-04-19T05:54:22.240Z,361.00
2023-04-19T05:55:22.231Z,361.00
2023-04-19T05:56:22.984Z,361.00
2023-04-19T05:57:22.250Z,362.00
2023-04-19T05:58:22.271Z,362.00
2023-04-19T05:59:22.399Z,361.00
2023-04-19T06:00:22.275Z,358.00
2023-04-19T06:01:22.277Z,358.00
2023-04-19T06:02:22.395Z,363.00
2023-04-19T06:03:22.467Z,363.00
2023-04-19T06:04:22.963Z,364.00
2023-04-19T06:05:22.742Z,368.00
2023-04-19T06:06:22.481Z,368.00
2023-04-19T06:07:32.637Z,372.00
2023-04-19T06:08:23.951Z,371.00
2023-04-19T06:09:22.377Z,370.00
2023-04-19T06:10:22.557Z,367.00
2023-04-19T06:11:28.757Z,371.00
2023-04-19T06:12:23.450Z,375.00
2023-04-19T06:13:22.451Z,376.00
2023-04-19T06:14:22.937Z,375.00
2023-04-19T06:15:22.466Z,376.00
2023-04-19T06:16:22.464Z,374.00
2023-04-19T06:17:22.500Z,375.00
2023-04-19T06:18:22.471Z,377.00
2023-04-19T06:19:22.514Z,374.00
2023-04-19T06:20:22.529Z,371.00
2023-04-19T06:21:22.553Z,369.00
2023-04-19T06:22:22.586Z,372.00
2023-04-19T06:23:22.618Z,372.00
2023-04-19T06:24:23.474Z,371.00
2023-04-19T06:25:22.716Z,375.00
2023-04-19T06:26:22.721Z,376.00
2023-04-19T06:27:22.724Z,377.00
2023-04-19T06:28:22.744Z,379.00
2023-04-19T06:29:22.789Z,376.00
2023-04-19T06:30:22.818Z,378.00
2023-04-19T06:31:23.493Z,379.00
2023-04-19T06:32:22.909Z,379.00
2023-04-19T06:33:22.868Z,380.00
2023-04-19T06:34:22.858Z,380.00
2023-04-19T06:35:22.910Z,380.00
2023-04-19T06:36:23.499Z,382.00
2023-04-19T06:37:23.050Z,383.00
2023-04-19T06:38:22.977Z,381.00
2023-04-19T06:39:22.929Z,379.00
2023-04-19T06:40:22.955Z,380.00
2023-04-19T06:41:22.979Z,381.00
2023-04-19T06:42:23.214Z,384.00
2023-04-19T06:43:22.984Z,385.00
2023-04-19T06:44:22.996Z,384.00
2023-04-19T06:45:23.052Z,381.00
2023-04-19T06:46:23.200Z,381.00
2023-04-19T06:47:23.096Z,380.00
2023-04-19T06:48:23.054Z,381.00
2023-04-19T06:49:23.078Z,380.00
2023-04-19T06:50:23.089Z,382.00
2023-04-19T06:51:23.091Z,384.00
2023-04-19T06:52:23.125Z,384.00
2023-04-19T06:53:23.159Z,385.00
2023-04-19T06:54:23.220Z,385.00
2023-04-19T06:55:23.335Z,386.00
2023-04-19T06:56:23.338Z,386.00
2023-04-19T06:57:23.395Z,386.00
2023-04-19T06:58:23.459Z,383.00
2023-04-19T06:59:23.417Z,385.00
2023-04-19T07:00:23.402Z,385.00
2023-04-19T07:01:23.485Z,388.00
2023-04-19T07:02:23.479Z,391.00
2023-04-19T07:03:24.222Z,390.00
2023-04-19T07:04:23.693Z,394.00
2023-04-19T07:05:23.512Z,394.00
2023-04-19T07:06:23.479Z,395.00
2023-04-19T07:07:23.505Z,393.00
2023-04-19T07:08:23.633Z,392.00
2023-04-19T07:09:23.532Z,391.00
2023-04-19T07:10:23.576Z,393.00
2023-04-19T07:11:23.645Z,389.00
2023-04-19T07:12:23.576Z,390.00
2023-04-19T07:13:23.606Z,388.00
2023-04-19T07:14:23.636Z,389.00
2023-04-19T07:15:23.687Z,391.00
2023-04-19T07:16:23.830Z,393.00
2023-04-19T07:17:23.757Z,393.00
2023-04-19T07:18:23.811Z,393.00
2023-04-19T07:19:23.828Z,393.00
2023-04-19T07:20:23.857Z,389.00
2023-04-19T07:21:23.895Z,389.00
2023-04-19T07:22:23.927Z,390.00
2023-04-19T07:23:23.962Z,391.00
2023-04-19T07:24:24.064Z,394.00
2023-04-19T07:25:24.289Z,395.00
2023-04-19T07:26:24.193Z,395.00
2023-04-19T07:27:24.172Z,397.00
2023-04-19T07:28:24.234Z,394.00
2023-04-19T07:29:24.249Z,394.00
2023-04-19T07:30:24.279Z,393.00
2023-04-19T07:31:24.349Z,393.00
2023-04-19T07:32:25.017Z,395.00
2023-04-19T07:33:25.917Z,394.00
2023-04-19T07:34:24.420Z,393.00
2023-04-19T07:35:24.519Z,393.00
2023-04-19T07:36:24.425Z,397.00
2023-04-19T07:37:24.482Z,399.00
2023-04-19T07:38:24.498Z,400.00
2023-04-19T07:39:24.553Z,399.00
2023-04-19T07:40:24.596Z,399.00
2023-04-19T07:41:24.531Z,395.00
2023-04-19T07:42:24.571Z,395.00
2023-04-19T07:43:24.599Z,397.00
2023-04-19T07:44:24.575Z,398.00
2023-04-19T07:45:24.683Z,402.00
2023-04-19T07:46:24.637Z,406.00
2023-04-19T07:47:24.670Z,406.00
2023-04-19T07:48:24.645Z,408.00
2023-04-19T07:49:24.731Z,406.00
2023-04-19T07:50:24.687Z,403.00
2023-04-19T07:51:24.688Z,402.00
2023-04-19T07:52:24.753Z,401.00
2023-04-19T07:53:24.799Z,402.00
2023-04-19T07:54:24.874Z,400.00
2023-04-19T07:55:24.945Z,400.00
2023-04-19T07:56:25.055Z,400.00
2023-04-19T07:57:25.005Z,400.00
2023-04-19T07:58:25.078Z,398.00
2023-04-19T07:59:25.082Z,400.00
2023-04-19T08:00:25.242Z,402.00
2023-04-19T08:01:25.199Z,402.00
2023-04-19T08:02:25.305Z,400.00
2023-04-19T08:03:25.467Z,396.00
2023-04-19T08:04:25.753Z,395.00
2023-04-19T08:05:25.516Z,395.00
2023-04-19T08:06:25.322Z,395.00
2023-04-19T08:07:25.405Z,394.00
2023-04-19T08:08:25.374Z,396.00
2023-04-19T08:09:25.408Z,399.00
2023-04-19T08:10:25.387Z,397.00
2023-04-19T08:11:25.400Z,395.00
2023-04-19T08:12:35.077Z,397.00
2023-04-19T08:13:26.449Z,397.00
2023-04-19T08:14:37.785Z,397.00
2023-04-19T08:16:01.327Z,398.00
2023-04-19T08:17:09.131Z,399.00
2023-04-19T08:17:29.773Z,400.00
2023-04-19T08:18:25.511Z,400.00
2023-04-19T08:19:25.517Z,401.00
2023-04-19T08:20:25.521Z,398.00
2023-04-19T08:21:34.365Z,399.00
2023-04-19T08:22:27.503Z,400.00
2023-04-19T08:23:29.672Z,401.00
2023-04-19T08:24:26.588Z,400.00
2023-04-19T08:25:26.558Z,399.00
2023-04-19T08:26:25.584Z,399.00
2023-04-19T08:27:25.603Z,398.00
2023-04-19T08:28:25.668Z,399.00
2023-04-19T08:29:25.640Z,398.00
2023-04-19T08:30:25.646Z,399.00
2023-04-19T08:31:25.710Z,397.00
2023-04-19T08:32:25.697Z,395.00
2023-04-19T08:33:25.690Z,393.00
2023-04-19T08:34:25.681Z,396.00
2023-04-19T08:35:25.720Z,399.00
2023-04-19T08:36:37.059Z,400.00
2023-04-19T08:37:26.756Z,401.00
2023-04-19T08:38:25.758Z,402.00
2023-04-19T08:39:33.155Z,401.00
2023-04-19T08:40:26.821Z,403.00
2023-04-19T08:41:25.806Z,403.00
2023-04-19T08:42:35.392Z,405.00
2023-04-19T08:43:26.828Z,404.00
2023-04-19T08:44:36.072Z,404.00
2023-04-19T08:45:28.516Z,405.00
2023-04-19T08:46:25.955Z,404.00
2023-04-19T08:47:31.161Z,403.00
2023-04-19T08:48:26.960Z,401.00
2023-04-19T08:49:25.911Z,400.00
2023-04-19T08:50:33.653Z,403.00
2023-04-19T08:51:26.938Z,404.00
2023-04-19T08:52:26.543Z,403.00
2023-04-19T08:53:26.255Z,404.00
2023-04-19T08:54:25.978Z,402.00
2023-04-19T08:55:26.009Z,400.00
2023-04-19T08:56:34.955Z,402.00
2023-04-19T08:57:27.022Z,405.00
2023-04-19T08:58:33.321Z,406.00
2023-04-19T08:59:27.037Z,403.00
2023-04-19T09:00:26.080Z,401.00
2023-04-19T09:01:35.623Z,403.00
2023-04-19T09:02:27.218Z,402.00
2023-04-19T09:03:26.335Z,403.00
2023-04-19T09:04:35.838Z,404.00
2023-04-19T09:05:27.360Z,403.00
2023-04-19T09:06:26.211Z,400.00
2023-04-19T09:07:27.026Z,402.00
2023-04-19T09:08:26.197Z,403.00
2023-04-19T09:10:26.238Z,400.00
2023-04-19T09:11:26.308Z,402.00
2023-04-19T09:12:26.276Z,403.00
2023-04-19T09:13:26.270Z,404.00
2023-04-19T09:14:26.301Z,402.00
2023-04-19T09:15:26.343Z,402.00
2023-04-19T09:16:26.460Z,402.00
2023-04-19T09:17:26.388Z,402.00
2023-04-19T09:18:27.338Z,403.00
2023-04-19T09:19:26.902Z,406.00
2023-04-19T09:20:26.661Z,407.00
2023-04-19T09:21:26.783Z,409.00
2023-04-19T09:22:26.819Z,411.00
2023-04-19T09:23:26.832Z,414.00
2023-04-19T09:24:26.851Z,417.00
2023-04-19T09:25:41.457Z,419.00
2023-04-19T09:26:27.883Z,421.00
2023-04-19T09:27:26.904Z,421.00
2023-04-19T09:28:26.920Z,419.00
2023-04-19T09:29:26.928Z,419.00
2023-04-19T09:30:32.381Z,417.00
2023-04-19T09:31:43.328Z,419.00
2023-04-19T09:32:28.127Z,421.00
2023-04-19T09:33:27.030Z,423.00
2023-04-19T09:34:26.984Z,424.00
2023-04-19T09:35:26.989Z,426.00
2023-04-19T09:36:27.025Z,429.00
2023-04-19T09:37:41.523Z,429.00
2023-04-19T09:38:28.051Z,430.00
2023-04-19T09:39:27.059Z,430.00
2023-04-19T09:40:27.134Z,428.00
2023-04-19T09:41:27.100Z,428.00
2023-04-19T09:45:30.570Z,432.00
2023-04-19T09:46:27.271Z,431.00
2023-04-19T09:47:27.273Z,432.00
2023-04-19T09:48:27.204Z,433.00
2023-04-19T09:49:37.696Z,433.00
2023-04-19T09:50:28.844Z,432.00
2023-04-19T09:51:27.227Z,435.00
2023-04-19T09:52:27.262Z,433.00
2023-04-19T09:53:27.326Z,431.00
2023-04-19T09:54:27.283Z,432.00
2023-04-19T09:55:28.745Z,432.00
2023-04-19T09:56:27.291Z,435.00
2023-04-19T09:57:27.294Z,437.00
2023-04-19T09:58:34.532Z,437.00
2023-04-19T09:59:27.427Z,437.00
2023-04-19T10:00:29.809Z,438.00
2023-04-19T10:01:28.381Z,440.00
2023-04-19T10:02:27.564Z,443.00
2023-04-19T10:03:27.395Z,443.00
2023-04-19T10:04:43.499Z,444.00
2023-04-19T10:05:28.550Z,443.00
2023-04-19T10:06:45.801Z,443.00
2023-04-19T10:08:46.521Z,426.00
2023-04-19T10:09:53.146Z,419.00
2023-04-19T10:10:47.677Z,420.00
2023-04-19T10:11:48.211Z,425.00
2023-04-19T10:13:07.556Z,425.00
2023-04-19T10:13:47.628Z,424.00
2023-04-19T10:14:46.534Z,425.00
2023-04-19T10:15:52.567Z,427.00
2023-04-19T10:16:47.704Z,424.00
2023-04-19T10:17:46.556Z,427.00
2023-04-19T10:18:46.543Z,430.00
2023-04-19T10:19:46.658Z,429.00
2023-04-19T10:20:46.542Z,430.00
2023-04-19T10:21:46.555Z,431.00
2023-04-19T10:22:46.590Z,431.00
2023-04-19T10:23:46.571Z,433.00
2023-04-19T10:24:48.259Z,433.00
2023-04-19T10:25:46.654Z,434.00
2023-04-19T10:26:46.720Z,434.00
2023-04-19T10:27:46.795Z,436.00
2023-04-19T10:28:46.880Z,438.00
2023-04-19T10:29:46.930Z,438.00
2023-04-19T10:30:46.997Z,439.00
2023-04-19T10:31:47.155Z,442.00
2023-04-19T10:32:47.266Z,442.00
2023-04-19T10:33:47.222Z,442.00
2023-04-19T10:34:47.310Z,442.00
2023-04-19T10:35:47.375Z,443.00
2023-04-19T10:36:47.706Z,444.00
2023-04-19T10:37:47.590Z,442.00
2023-04-19T10:38:48.337Z,442.00
2023-04-19T10:39:47.683Z,438.00
2023-04-19T10:40:48.004Z,435.00
2023-04-19T10:41:47.804Z,439.00
2023-04-19T10:42:47.922Z,441.00
2023-04-19T10:43:48.712Z,441.00
2023-04-19T10:44:48.080Z,442.00
2023-04-19T10:45:48.190Z,441.00
2023-04-19T10:46:48.247Z,444.00
2023-04-19T10:47:48.320Z,443.00
2023-04-19T10:48:49.206Z,447.00
2023-04-19T10:49:48.301Z,448.00
2023-04-19T10:50:48.399Z,447.00
2023-04-19T10:51:48.506Z,446.00
2023-04-19T10:52:48.431Z,446.00
2023-04-19T10:53:48.489Z,446.00
2023-04-19T10:54:48.513Z,444.00
2023-04-19T10:55:48.567Z,446.00
2023-04-19T10:56:48.700Z,445.00
2023-04-19T10:57:48.602Z,443.00
2023-04-19T10:58:48.651Z,440.00
2023-04-19T10:59:48.521Z,438.00
2023-04-19T11:00:48.718Z,436.00
2023-04-19T11:01:48.545Z,438.00
2023-04-19T11:02:48.630Z,438.00
2023-04-19T11:03:48.618Z,439.00
2023-04-19T11:04:48.607Z,438.00
2023-04-19T11:05:48.525Z,439.00
2023-04-19T11:06:48.563Z,437.00
2023-04-19T11:07:48.782Z,435.00
2023-04-19T11:08:48.634Z,435.00
2023-04-19T11:09:48.736Z,435.00
2023-04-19T11:10:48.695Z,436.00
2023-04-19T11:11:48.740Z,438.00
2023-04-19T11:12:48.781Z,439.00
2023-04-19T11:13:48.795Z,438.00
2023-04-19T11:14:48.804Z,436.00
2023-04-19T11:15:48.805Z,436.00
2023-04-19T11:16:48.851Z,438.00
2023-04-19T11:17:54.871Z,439.00
2023-04-19T11:18:49.773Z,438.00
2023-04-19T11:19:48.762Z,437.00
2023-04-19T11:20:48.775Z,436.00
2023-04-19T11:21:48.776Z,430.00
2023-04-19T11:22:48.770Z,432.00
2023-04-19T11:23:48.844Z,430.00
2023-04-19T11:24:48.793Z,430.00
2023-04-19T11:25:48.797Z,433.00
2023-04-19T11:26:48.813Z,434.00
2023-04-19T11:27:48.797Z,431.00
2023-04-19T11:28:48.819Z,430.00
2023-04-19T11:29:48.837Z,432.00
2023-04-19T11:30:49.724Z,433.00
2023-04-19T11:31:48.976Z,432.00
2023-04-19T11:32:49.105Z,432.00
2023-04-19T11:33:49.011Z,433.00
2023-04-19T11:34:49.041Z,432.00
2023-04-19T11:35:49.082Z,434.00
2023-04-19T11:36:49.021Z,434.00
2023-04-19T11:37:49.057Z,435.00
2023-04-19T11:38:49.020Z,435.00
2023-04-19T11:39:49.090Z,435.00
2023-04-19T11:40:49.064Z,435.00
2023-04-19T11:41:49.023Z,433.00
2023-04-19T11:42:49.031Z,436.00
2023-04-19T11:43:49.047Z,437.00
2023-04-19T11:44:49.110Z,437.00
2023-04-19T11:45:49.160Z,438.00
2023-04-19T11:46:49.227Z,438.00
2023-04-19T11:47:49.277Z,437.00
2023-04-19T11:48:49.301Z,436.00
2023-04-19T11:49:49.381Z,437.00
2023-04-19T11:50:49.372Z,439.00
2023-04-19T11:51:49.440Z,440.00
2023-04-19T11:52:49.505Z,440.00
2023-04-19T11:53:49.598Z,442.00
2023-04-19T11:54:49.650Z,443.00
2023-04-19T11:55:49.732Z,441.00
2023-04-19T11:56:49.790Z,438.00
2023-04-19T11:57:49.908Z,439.00
2023-04-19T11:58:49.942Z,438.00
2023-04-19T11:59:50.153Z,439.00
2023-04-19T12:00:50.085Z,438.00
2023-04-19T12:01:50.153Z,437.00
2023-04-19T12:02:50.343Z,438.00
2023-04-19T12:03:50.592Z,436.00
2023-04-19T12:04:50.445Z,438.00
2023-04-19T12:05:50.362Z,441.00
2023-04-19T12:06:50.418Z,440.00
2023-04-19T12:07:50.470Z,439.00
2023-04-19T12:08:50.702Z,438.00
2023-04-19T12:09:50.802Z,438.00
2023-04-19T12:10:50.644Z,440.00
2023-04-19T12:11:50.709Z,442.00
2023-04-19T12:12:50.768Z,439.00
2023-04-19T12:13:50.876Z,438.00
2023-04-19T12:14:50.963Z,438.00
2023-04-19T12:15:50.983Z,436.00
2023-04-19T12:16:51.799Z,437.00
2023-04-19T12:17:56.967Z,434.00
2023-04-19T12:18:52.120Z,434.00
2023-04-19T12:19:51.094Z,436.00
2023-04-19T12:20:51.086Z,438.00
2023-04-19T12:21:51.153Z,440.00
2023-04-19T12:22:51.112Z,439.00
2023-04-19T12:23:51.154Z,438.00
2023-04-19T12:24:51.151Z,441.00
2023-04-19T12:25:51.136Z,441.00
2023-04-19T12:26:51.149Z,441.00
2023-04-19T12:27:51.200Z,442.00
2023-04-19T12:28:51.308Z,444.00
2023-04-19T12:29:52.190Z,445.00
2023-04-19T12:30:51.389Z,446.00
2023-04-19T12:31:51.858Z,448.00
2023-04-19T12:32:52.413Z,447.00
2023-04-19T12:33:51.604Z,450.00